グアダラハラ の空港の天気 - METARとTAF

ドン・ミゲル・イダルゴ・イ・コスティージャ国際空港 ( MMGL / GDL ) - メキシコ ハリスコ州グアダラハラ
飛行場実況気象(Metar)
観測時間10/15 11:44 CDT (10/15 16:44 UTC)
風向・風速北 2m/s
視程9650m
天気現象
全天の4割程度の雲 雲底高度 460m
気温25℃
湿度50%
気圧1021hPa
METARMMGL 151644Z 01003KT 6SM SCT015TCU 25/14 A3016 RMK 8/200 HZY
過去の天気等 Google飛行場航空写真 Wunderground天気予報

過去48時間のMETAR

飛行場予報(TAF)
発表時間: 10/15 11:58 CDT (10/15 16:58 UTC)
予報対象時間: 15日13時 CDT ~ 16日19時 CDT
風向・風速東北東 5m/s
視程10km以上
全天の8割程度の雲 雲底高度 610m
15日16時 CDT から
風向・風速西南西 5m/s
視程10km以上
全天の4割程度の雲 雲底高度 760m
全天の8割程度の雲 雲底高度 7620m
16日7時 CDT から
風向・風速静穏
視程3220m
天気現象もや
全天の8割程度の雲 雲底高度 300m
16日10時 CDT から
風向・風速静穏
視程6440m
天気現象煙霧
全天の8割程度の雲 雲底高度 460m
16日14時 CDT から
風向・風速南南西 5m/s
視程10km以上
全天の4割程度の雲 雲底高度 760m
TAF MMGL 151658Z 1518/1624 06010KT P6SM BKN020 TX28/1522Z TN16/1612Z
FM152100 24010KT P6SM SCT025 BKN250
FM161200 00000KT 2SM BR BKN010
FM161500 00000KT 4SM HZ BKN015
FM161900 20010KT P6SM SCT025